Time;durP1;ratioP1;P1;durP2;ratioP2;P2;SDS_P1;SDS_P2;PMS_P1;PMS_P2;Temp;Humidity;BMP_temperature;BMP_pressure;BME280_temperature;BME280_humidity;BME280_pressure;Samples;Min_cycle;Max_cycle;Signal;HPM_P1;HPM_P2
2022/01/10 00:00:52;;;;;;;23.95;19.48;;;;;;;;;;5045856;28;20142;-77
2022/01/10 00:03:22;;;;;;;21.27;17.38;;;;;;;;;;5079560;28;20493;-78
2022/01/10 00:05:50;;;;;;;21.40;17.83;;;;;;;;;;5084232;28;20072;-78
2022/01/10 00:08:17;;;;;;;18.05;16.08;;;;;;;;;;5051755;28;20083;-78
2022/01/10 00:10:45;;;;;;;20.00;16.88;;;;;;;;;;5044864;28;20059;-77
2022/01/10 00:13:12;;;;;;;18.70;16.83;;;;;;;;;;5065978;28;20417;-78
2022/01/10 00:15:39;;;;;;;21.05;18.25;;;;;;;;;;5061200;28;20048;-78
2022/01/10 00:18:06;;;;;;;20.67;17.77;;;;;;;;;;5073004;28;20062;-78
2022/01/10 00:20:33;;;;;;;18.48;16.55;;;;;;;;;;5043924;28;20041;-78
2022/01/10 00:23:00;;;;;;;21.63;16.95;;;;;;;;;;5052310;28;20120;-77
2022/01/10 00:25:27;;;;;;;20.58;16.52;;;;;;;;;;5019312;28;20041;-76
2022/01/10 00:27:55;;;;;;;17.20;15.32;;;;;;;;;;5053322;28;20680;-77
2022/01/10 00:30:24;;;;;;;19.27;16.15;;;;;;;;;;5035152;28;20041;-75
2022/01/10 00:32:52;;;;;;;23.67;18.30;;;;;;;;;;5062699;28;20166;-76
2022/01/10 00:35:19;;;;;;;21.85;17.17;;;;;;;;;;5054896;28;20045;-75
2022/01/10 00:37:46;;;;;;;23.05;17.98;;;;;;;;;;5055323;28;20057;-75
2022/01/10 00:40:15;;;;;;;20.67;17.30;;;;;;;;;;5072136;28;20386;-76
2022/01/10 00:42:44;;;;;;;20.58;16.52;;;;;;;;;;5071380;28;20485;-76
2022/01/10 00:45:20;;;;;;;20.40;16.60;;;;;;;;;;5055018;28;20484;-75
2022/01/10 00:47:47;;;;;;;18.55;16.50;;;;;;;;;;5049745;28;20039;-75
2022/01/10 00:50:15;;;;;;;21.15;16.20;;;;;;;;;;5055075;28;20043;-75
2022/01/10 00:52:43;;;;;;;22.65;16.65;;;;;;;;;;5039013;28;20048;-75
2022/01/10 00:55:10;;;;;;;16.10;14.20;;;;;;;;;;5054869;28;20049;-75
2022/01/10 00:57:38;;;;;;;17.08;15.18;;;;;;;;;;5053957;28;20068;-75
2022/01/10 01:00:07;;;;;;;17.15;14.35;;;;;;;;;;5057829;28;20051;-76
2022/01/10 01:02:34;;;;;;;12.18;10.65;;;;;;;;;;5051533;28;20059;-76
2022/01/10 01:05:06;;;;;;;10.55;9.27;;;;;;;;;;5052540;28;20041;-76
2022/01/10 01:07:34;;;;;;;13.23;8.18;;;;;;;;;;5052641;28;20366;-75
2022/01/10 01:13:00;;;;;;;8.85;7.97;;;;;;;;;;5037216;28;20536;-76
2022/01/10 01:15:32;;;;;;;12.05;9.38;;;;;;;;;;5020586;28;20064;-76
2022/01/10 01:18:15;;;;;;;9.10;8.20;;;;;;;;;;5052532;28;20444;-76
2022/01/10 01:20:45;;;;;;;7.55;6.68;;;;;;;;;;5041564;28;20040;-76
2022/01/10 01:26:03;;;;;;;7.68;6.82;;;;;;;;;;5037048;28;20049;-75
2022/01/10 01:28:31;;;;;;;9.90;8.05;;;;;;;;;;5034649;28;20146;-76
2022/01/10 01:30:58;;;;;;;7.95;7.15;;;;;;;;;;5034209;28;20198;-76
2022/01/10 01:33:25;;;;;;;9.32;8.38;;;;;;;;;;5034577;28;20794;-78
2022/01/10 01:35:53;;;;;;;8.00;7.20;;;;;;;;;;5017954;28;20059;-78
2022/01/10 01:38:22;;;;;;;8.38;7.50;;;;;;;;;;5051336;28;20041;-77
2022/01/10 01:41:12;;;;;;;8.38;7.53;;;;;;;;;;5052264;28;20040;-76
2022/01/10 01:43:37;;;;;;;9.65;7.68;;;;;;;;;;5033692;28;20329;-76
2022/01/10 01:46:04;;;;;;;9.93;7.53;;;;;;;;;;5034582;28;20056;-76
2022/01/10 01:48:31;;;;;;;9.82;8.25;;;;;;;;;;5001465;28;20417;-76
2022/01/10 01:50:58;;;;;;;10.00;7.57;;;;;;;;;;5049491;28;20043;-76
2022/01/10 01:53:26;;;;;;;9.13;7.25;;;;;;;;;;5064579;28;20048;-76
2022/01/10 01:55:53;;;;;;;8.65;7.63;;;;;;;;;;5053743;28;20048;-76
2022/01/10 01:58:20;;;;;;;8.93;8.00;;;;;;;;;;5037074;28;20047;-76
2022/01/10 02:00:48;;;;;;;9.05;7.85;;;;;;;;;;5053240;28;20068;-76
2022/01/10 02:03:15;;;;;;;9.07;8.18;;;;;;;;;;5051932;28;20047;-75
2022/01/10 02:05:46;;;;;;;9.07;8.05;;;;;;;;;;5020363;28;20045;-75
2022/01/10 02:08:13;;;;;;;8.65;7.75;;;;;;;;;;5033787;28;20470;-76
2022/01/10 02:10:40;;;;;;;8.27;7.47;;;;;;;;;;5049511;28;20047;-76
2022/01/10 02:13:07;;;;;;;12.52;10.25;;;;;;;;;;5037263;28;20049;-76
2022/01/10 02:15:46;;;;;;;12.77;10.07;;;;;;;;;;5053440;28;20045;-76
2022/01/10 02:18:20;;;;;;;11.52;10.25;;;;;;;;;;5086698;28;20044;-76
2022/01/10 02:20:51;;;;;;;12.75;10.15;;;;;;;;;;5087260;28;20052;-77
2022/01/10 02:23:20;;;;;;;12.50;11.05;;;;;;;;;;5044373;28;20074;-77
2022/01/10 02:26:04;;;;;;;13.48;9.57;;;;;;;;;;5019932;28;20049;-77
2022/01/10 02:28:33;;;;;;;10.80;9.55;;;;;;;;;;5033452;28;20462;-77
2022/01/10 02:31:00;;;;;;;9.07;8.23;;;;;;;;;;5050399;28;20053;-77
2022/01/10 02:33:29;;;;;;;11.98;9.63;;;;;;;;;;5017571;28;20053;-76
2022/01/10 02:38:26;;;;;;;9.73;8.73;;;;;;;;;;5017281;28;20401;-76
2022/01/10 02:40:55;;;;;;;11.90;9.73;;;;;;;;;;5016972;28;20048;-76
2022/01/10 02:43:22;;;;;;;11.02;9.98;;;;;;;;;;5036622;28;20044;-76
2022/01/10 02:45:52;;;;;;;12.82;9.70;;;;;;;;;;5041865;28;20421;-76
2022/01/10 02:48:20;;;;;;;11.48;10.38;;;;;;;;;;5054963;28;20045;-76
2022/01/10 02:50:47;;;;;;;11.60;8.60;;;;;;;;;;5071642;28;20052;-75
2022/01/10 02:53:14;;;;;;;9.73;8.55;;;;;;;;;;5069368;28;20051;-75
2022/01/10 02:55:42;;;;;;;11.98;8.45;;;;;;;;;;5005486;28;20049;-77
2022/01/10 02:58:10;;;;;;;8.98;8.00;;;;;;;;;;5077178;28;20052;-76
2022/01/10 03:00:37;;;;;;;10.05;8.50;;;;;;;;;;5053928;28;20584;-76
2022/01/10 03:03:07;;;;;;;8.80;7.90;;;;;;;;;;5053981;28;20119;-76
2022/01/10 03:05:35;;;;;;;8.90;8.07;;;;;;;;;;5021523;28;20095;-76
2022/01/10 03:08:03;;;;;;;10.40;8.55;;;;;;;;;;5020362;28;20140;-76
2022/01/10 03:10:32;;;;;;;9.88;8.88;;;;;;;;;;5040658;28;20044;-76
2022/01/10 03:13:00;;;;;;;9.60;8.68;;;;;;;;;;5071877;28;20056;-76
2022/01/10 03:15:28;;;;;;;9.85;8.13;;;;;;;;;;5041630;28;20048;-76
2022/01/10 03:17:55;;;;;;;10.55;9.50;;;;;;;;;;5056654;28;20041;-76
2022/01/10 03:20:25;;;;;;;10.23;8.40;;;;;;;;;;5074475;28;20044;-76
2022/01/10 03:22:53;;;;;;;9.70;8.70;;;;;;;;;;5075360;28;20481;-76
2022/01/10 03:25:21;;;;;;;9.70;8.25;;;;;;;;;;5056518;28;20045;-76
2022/01/10 03:27:52;;;;;;;10.10;9.10;;;;;;;;;;5040333;28;20106;-76
2022/01/10 03:30:19;;;;;;;10.15;8.60;;;;;;;;;;5039450;28;20050;-76
2022/01/10 03:32:48;;;;;;;10.77;9.20;;;;;;;;;;5056243;28;20058;-76
2022/01/10 03:35:41;;;;;;;10.18;9.23;;;;;;;;;;5070373;28;20060;-76
2022/01/10 03:38:12;;;;;;;15.25;12.27;;;;;;;;;;5056174;28;20059;-76
2022/01/10 03:40:40;;;;;;;15.02;12.52;;;;;;;;;;5062450;28;20500;-75
2022/01/10 03:43:12;;;;;;;14.00;12.32;;;;;;;;;;5040101;28;20036;-76
2022/01/10 03:45:40;;;;;;;17.02;13.68;;;;;;;;;;5072472;28;20051;-76
2022/01/10 03:48:07;;;;;;;19.40;13.25;;;;;;;;;;5055390;28;20531;-76
2022/01/10 03:50:34;;;;;;;15.00;11.98;;;;;;;;;;5039573;28;20045;-76
2022/01/10 03:53:01;;;;;;;14.70;13.02;;;;;;;;;;5055341;28;20059;-76
2022/01/10 03:55:29;;;;;;;14.18;12.30;;;;;;;;;;5039533;28;20049;-75
2022/01/10 03:57:59;;;;;;;14.68;13.10;;;;;;;;;;5069815;28;20492;-76
2022/01/10 04:00:26;;;;;;;16.30;12.85;;;;;;;;;;5093731;28;20067;-77
2022/01/10 04:02:59;;;;;;;17.88;12.45;;;;;;;;;;5076517;28;20131;-77
2022/01/10 04:05:32;;;;;;;16.30;12.30;;;;;;;;;;5046106;28;20135;-77
2022/01/10 04:07:59;;;;;;;15.57;13.70;;;;;;;;;;5073853;28;20045;-77
2022/01/10 04:10:26;;;;;;;14.15;12.60;;;;;;;;;;5073506;28;20083;-77
2022/01/10 04:12:53;;;;;;;14.73;13.18;;;;;;;;;;5072713;28;20076;-77
2022/01/10 04:15:21;;;;;;;16.20;13.48;;;;;;;;;;5039445;28;20079;-76
2022/01/10 04:17:55;;;;;;;16.50;14.80;;;;;;;;;;5055727;28;20549;-76
2022/01/10 04:20:23;;;;;;;;;;;;;;;;;;5052930;28;20379;-77
2022/01/10 04:22:52;;;;;;;16.40;14.10;;;;;;;;;;5054078;28;20011;-77
2022/01/10 04:25:19;;;;;;;16.70;14.90;;;;;;;;;;5052266;28;20095;-77
2022/01/10 04:27:46;;;;;;;16.15;14.23;;;;;;;;;;5052140;28;20053;-76
2022/01/10 04:30:21;;;;;;;19.98;14.48;;;;;;;;;;5021296;28;20478;-76
2022/01/10 04:32:48;;;;;;;16.95;13.10;;;;;;;;;;5067039;28;20063;-77
2022/01/10 04:35:22;;;;;;;14.52;13.07;;;;;;;;;;5038971;28;20055;-76
2022/01/10 04:38:02;;;;;;;15.93;13.43;;;;;;;;;;5037668;28;20082;-79
2022/01/10 04:40:29;;;;;;;16.10;14.27;;;;;;;;;;5047007;28;20501;-77
2022/01/10 04:42:57;;;;;;;14.05;12.60;;;;;;;;;;5057973;28;20056;-77
2022/01/10 04:45:24;;;;;;;15.10;12.43;;;;;;;;;;5053384;28;20128;-75
2022/01/10 04:47:51;;;;;;;13.95;11.70;;;;;;;;;;5054711;28;20045;-75
2022/01/10 04:52:50;;;;;;;14.25;12.75;;;;;;;;;;5071349;28;20053;-75
2022/01/10 04:55:20;;;;;;;13.60;11.85;;;;;;;;;;5054877;28;20143;-75
2022/01/10 04:57:47;;;;;;;12.50;11.20;;;;;;;;;;5018490;28;20044;-75
2022/01/10 05:00:16;;;;;;;13.75;11.88;;;;;;;;;;5037362;28;20099;-75
2022/01/10 05:02:48;;;;;;;14.25;12.15;;;;;;;;;;5051307;28;20055;-75
2022/01/10 05:05:16;;;;;;;13.40;12.00;;;;;;;;;;5052798;28;20052;-75
2022/01/10 05:07:43;;;;;;;15.27;11.85;;;;;;;;;;5018085;28;20090;-75
2022/01/10 05:10:12;;;;;;;14.02;12.63;;;;;;;;;;5034569;28;20519;-75
2022/01/10 05:12:41;;;;;;;15.70;12.02;;;;;;;;;;5018498;28;20552;-75
2022/01/10 05:15:08;;;;;;;12.80;11.25;;;;;;;;;;5034907;28;20053;-75
2022/01/10 05:17:36;;;;;;;15.70;11.45;;;;;;;;;;5051263;28;20051;-75
2022/01/10 05:20:05;;;;;;;13.32;11.90;;;;;;;;;;5034447;28;20179;-75
2022/01/10 05:22:33;;;;;;;13.45;11.23;;;;;;;;;;5034853;28;20068;-75
2022/01/10 05:25:00;;;;;;;11.93;10.77;;;;;;;;;;5034132;28;20059;-75
2022/01/10 05:27:27;;;;;;;12.10;10.85;;;;;;;;;;5044683;28;20057;-75
2022/01/10 05:29:57;;;;;;;10.90;9.80;;;;;;;;;;5038775;28;20501;-75
2022/01/10 05:32:24;;;;;;;13.55;10.55;;;;;;;;;;5041357;28;20183;-73
2022/01/10 05:35:30;;;;;;;11.60;9.65;;;;;;;;;;5059374;28;20083;-78
2022/01/10 05:37:57;;;;;;;10.85;9.82;;;;;;;;;;5037818;28;20098;-78
2022/01/10 05:40:24;;;;;;;10.43;9.27;;;;;;;;;;5038202;28;20413;-77
2022/01/10 05:42:51;;;;;;;12.48;8.35;;;;;;;;;;5072102;28;20095;-77
2022/01/10 05:45:22;;;;;;;10.68;9.60;;;;;;;;;;5071861;28;20469;-78
2022/01/10 05:47:49;;;;;;;9.75;8.75;;;;;;;;;;5054485;28;20067;-79
2022/01/10 05:50:19;;;;;;;10.07;8.98;;;;;;;;;;5054422;28;20044;-79
2022/01/10 05:52:48;;;;;;;9.38;8.25;;;;;;;;;;5055117;28;20117;-79
2022/01/10 05:55:18;;;;;;;9.93;8.93;;;;;;;;;;5038099;28;20401;-77
2022/01/10 05:57:48;;;;;;;9.77;8.75;;;;;;;;;;5036522;28;20049;-75
2022/01/10 06:00:14;;;;;;;11.00;9.05;;;;;;;;;;5054959;28;20045;-77
2022/01/10 06:02:41;;;;;;;11.10;9.93;;;;;;;;;;5066565;28;20041;-78
2022/01/10 06:05:18;;;;;;;11.48;9.68;;;;;;;;;;5070011;28;20048;-79
2022/01/10 06:07:49;;;;;;;11.15;9.70;;;;;;;;;;5060172;28;20049;-77
2022/01/10 06:10:16;;;;;;;12.38;10.57;;;;;;;;;;5051273;28;20434;-77
2022/01/10 06:12:43;;;;;;;12.65;11.38;;;;;;;;;;5047680;28;20052;-78
2022/01/10 06:15:10;;;;;;;11.50;10.02;;;;;;;;;;5062071;28;20064;-80
2022/01/10 06:17:41;;;;;;;11.95;9.77;;;;;;;;;;5035979;28;20053;-79
2022/01/10 06:20:09;;;;;;;12.75;10.05;;;;;;;;;;5051329;28;20056;-74
2022/01/10 06:22:37;;;;;;;11.80;9.75;;;;;;;;;;5033398;28;20041;-78
2022/01/10 06:25:09;;;;;;;10.38;9.35;;;;;;;;;;5054067;28;20070;-84
2022/01/10 06:27:36;;;;;;;10.07;8.57;;;;;;;;;;5034367;28;20045;-86
2022/01/10 06:30:05;;;;;;;11.15;9.98;;;;;;;;;;5049187;28;20056;-84
2022/01/10 06:32:38;;;;;;;16.33;11.52;;;;;;;;;;5054731;28;20052;-81
2022/01/10 06:35:08;;;;;;;17.58;12.18;;;;;;;;;;5071784;28;20117;-81
2022/01/10 06:37:36;;;;;;;18.35;14.57;;;;;;;;;;5077146;28;20838;-80
2022/01/10 06:40:05;;;;;;;17.55;13.90;;;;;;;;;;5079320;28;20537;-83
2022/01/10 06:42:36;;;;;;;19.95;17.50;;;;;;;;;;5045229;28;20135;-85
2022/01/10 06:45:05;;;;;;;21.63;16.55;;;;;;;;;;5049923;28;20058;-85
2022/01/10 06:47:32;;;;;;;23.63;18.92;;;;;;;;;;5086408;28;20045;-81
2022/01/10 06:49:59;;;;;;;25.45;20.05;;;;;;;;;;5082041;28;20087;-78
2022/01/10 06:52:26;;;;;;;27.17;21.67;;;;;;;;;;5037942;28;20051;-83
2022/01/10 06:54:55;;;;;;;26.35;21.35;;;;;;;;;;5037680;28;20049;-84
2022/01/10 06:57:23;;;;;;;34.85;25.15;;;;;;;;;;5055113;28;20056;-85
2022/01/10 06:59:50;;;;;;;36.88;25.88;;;;;;;;;;5052534;28;20603;-84
2022/01/10 07:02:19;;;;;;;35.95;27.80;;;;;;;;;;5044456;28;20072;-86
2022/01/10 07:04:50;;;;;;;44.65;30.98;;;;;;;;;;5054691;28;20299;-87
2022/01/10 07:07:17;;;;;;;39.40;31.20;;;;;;;;;;5054934;28;20052;-84
2022/01/10 07:09:48;;;;;;;45.72;31.75;;;;;;;;;;5061574;28;20068;-86
2022/01/10 07:12:15;;;;;;;34.45;27.63;;;;;;;;;;5084175;28;20052;-88
2022/01/10 07:14:52;;;;;;;39.67;28.40;;;;;;;;;;5062589;28;20067;-84
2022/01/10 07:17:20;;;;;;;37.83;28.92;;;;;;;;;;5069581;28;20052;-87
2022/01/10 07:19:47;;;;;;;36.38;28.77;;;;;;;;;;5087695;28;20051;-87
2022/01/10 07:22:21;;;;;;;34.88;27.27;;;;;;;;;;5048775;28;20102;-88
2022/01/10 07:24:48;;;;;;;33.28;27.85;;;;;;;;;;5075166;28;20048;-91
2022/01/10 07:27:15;;;;;;;31.83;25.10;;;;;;;;;;5091562;28;20489;-87
2022/01/10 07:29:42;;;;;;;28.55;21.83;;;;;;;;;;5065764;28;20449;-87
2022/01/10 07:32:10;;;;;;;29.13;21.38;;;;;;;;;;5049332;28;20060;-85
2022/01/10 07:34:37;;;;;;;23.35;18.75;;;;;;;;;;5069070;28;20521;-83
2022/01/10 07:37:04;;;;;;;22.17;17.05;;;;;;;;;;5058261;28;20127;-80
2022/01/10 07:39:31;;;;;;;21.73;17.65;;;;;;;;;;5085561;28;20447;-82
2022/01/10 07:41:58;;;;;;;18.10;15.50;;;;;;;;;;5062873;28;20067;-80
2022/01/10 07:44:38;;;;;;;19.35;16.40;;;;;;;;;;5049883;28;20041;-83
2022/01/10 07:47:07;;;;;;;19.50;13.88;;;;;;;;;;5078437;28;20044;-85
2022/01/10 07:49:35;;;;;;;13.90;12.00;;;;;;;;;;5058677;28;20048;-84
2022/01/10 07:52:02;;;;;;;14.45;11.68;;;;;;;;;;5081514;28;20091;-80
2022/01/10 07:54:29;;;;;;;15.48;12.68;;;;;;;;;;5069363;28;20068;-84
2022/01/10 07:56:56;;;;;;;14.55;11.90;;;;;;;;;;5050787;28;20558;-78
2022/01/10 07:59:24;;;;;;;12.88;11.07;;;;;;;;;;5059573;28;20045;-77
2022/01/10 08:01:51;;;;;;;11.43;9.82;;;;;;;;;;5085857;28;20048;-78
2022/01/10 08:04:19;;;;;;;14.80;11.63;;;;;;;;;;5048668;28;20051;-76
2022/01/10 08:06:46;;;;;;;15.18;10.52;;;;;;;;;;5064035;28;20094;-77
2022/01/10 08:09:13;;;;;;;12.93;10.38;;;;;;;;;;5033969;28;20098;-77
2022/01/10 08:11:40;;;;;;;16.75;11.13;;;;;;;;;;5067214;28;20060;-77
2022/01/10 08:14:07;;;;;;;14.13;11.27;;;;;;;;;;5080475;28;20048;-74
2022/01/10 08:16:34;;;;;;;14.43;10.68;;;;;;;;;;5044359;28;20048;-74
2022/01/10 08:19:02;;;;;;;14.57;10.77;;;;;;;;;;5043499;28;20083;-80
2022/01/10 08:21:29;;;;;;;14.85;10.95;;;;;;;;;;5044234;28;20067;-78
2022/01/10 08:23:57;;;;;;;16.05;11.30;;;;;;;;;;5039488;28;20462;-81
2022/01/10 08:26:24;;;;;;;17.73;12.05;;;;;;;;;;5067032;28;20546;-80
2022/01/10 08:28:51;;;;;;;15.18;12.32;;;;;;;;;;5049156;28;20076;-81
2022/01/10 08:31:18;;;;;;;19.02;12.00;;;;;;;;;;5045622;28;20147;-78
2022/01/10 08:33:46;;;;;;;13.57;10.52;;;;;;;;;;5059280;28;20049;-78
2022/01/10 08:36:13;;;;;;;17.27;12.35;;;;;;;;;;5049800;28;20459;-79
2022/01/10 08:38:41;;;;;;;16.25;10.98;;;;;;;;;;5063402;28;20052;-81
2022/01/10 08:41:08;;;;;;;14.90;12.13;;;;;;;;;;5059549;28;20040;-74
2022/01/10 08:43:35;;;;;;;13.27;10.45;;;;;;;;;;5064495;28;20057;-77
2022/01/10 08:46:02;;;;;;;23.95;17.38;;;;;;;;;;5078219;28;20134;-76
2022/01/10 08:48:38;;;;;;;24.77;15.20;;;;;;;;;;5066298;28;20047;-75
2022/01/10 08:51:05;;;;;;;18.15;11.55;;;;;;;;;;5059542;28;20117;-81
2022/01/10 08:53:32;;;;;;;18.77;13.13;;;;;;;;;;5075954;28;20047;-78
2022/01/10 08:56:00;;;;;;;17.02;12.63;;;;;;;;;;5067560;28;20076;-82
2022/01/10 08:58:32;;;;;;;16.48;12.45;;;;;;;;;;5078853;28;20098;-80
2022/01/10 09:01:00;;;;;;;16.25;11.38;;;;;;;;;;5062141;28;20044;-81
2022/01/10 09:03:28;;;;;;;16.00;10.10;;;;;;;;;;5051486;28;20087;-76
2022/01/10 09:05:55;;;;;;;13.20;11.02;;;;;;;;;;5081523;28;20055;-79
2022/01/10 09:08:38;;;;;;;29.17;18.20;;;;;;;;;;5064460;28;20462;-77
2022/01/10 09:11:05;;;;;;;74.07;40.67;;;;;;;;;;5048319;28;20466;-76
2022/01/10 09:13:33;;;;;;;42.80;26.52;;;;;;;;;;5066865;28;20134;-76
2022/01/10 09:16:02;;;;;;;19.60;13.52;;;;;;;;;;5059185;28;20049;-80
2022/01/10 09:18:29;;;;;;;10.93;8.60;;;;;;;;;;5032713;28;20131;-76
2022/01/10 09:20:56;;;;;;;13.05;9.65;;;;;;;;;;5067909;28;20124;-77
2022/01/10 09:23:24;;;;;;;8.85;7.95;;;;;;;;;;5062993;28;20501;-79
2022/01/10 09:25:51;;;;;;;11.02;7.25;;;;;;;;;;5042864;28;20037;-78
2022/01/10 09:28:19;;;;;;;9.25;6.90;;;;;;;;;;5057773;28;20056;-78
2022/01/10 09:30:47;;;;;;;10.60;7.40;;;;;;;;;;5061321;28;20053;-74
2022/01/10 09:33:14;;;;;;;10.00;7.93;;;;;;;;;;5058258;28;20485;-78
2022/01/10 09:35:43;;;;;;;9.35;7.65;;;;;;;;;;5043860;28;20054;-78
2022/01/10 09:38:10;;;;;;;11.60;7.03;;;;;;;;;;5059219;28;20072;-81
2022/01/10 09:40:37;;;;;;;9.63;7.50;;;;;;;;;;5047599;28;20087;-79
2022/01/10 09:43:18;;;;;;;9.65;8.65;;;;;;;;;;5068850;28;20045;-81
2022/01/10 09:45:45;;;;;;;13.18;9.75;;;;;;;;;;5045174;28;20087;-81
2022/01/10 09:48:12;;;;;;;11.88;8.50;;;;;;;;;;5053588;28;20114;-80
2022/01/10 09:50:40;;;;;;;7.97;6.47;;;;;;;;;;5049274;28;20045;-83
2022/01/10 09:53:08;;;;;;;9.38;6.65;;;;;;;;;;5062338;28;20049;-79
2022/01/10 09:55:35;;;;;;;10.13;6.95;;;;;;;;;;5062378;28;20040;-81
2022/01/10 09:58:03;;;;;;;11.18;6.93;;;;;;;;;;5063037;28;20072;-84
2022/01/10 10:00:31;;;;;;;8.30;7.28;;;;;;;;;;5062459;28;20071;-79
2022/01/10 10:02:59;;;;;;;10.65;7.97;;;;;;;;;;5061527;28;20086;-80
2022/01/10 10:05:26;;;;;;;12.73;8.55;;;;;;;;;;5047373;28;20116;-80
2022/01/10 10:07:53;;;;;;;10.25;8.13;;;;;;;;;;5066859;28;20497;-80
2022/01/10 10:10:21;;;;;;;14.77;9.18;;;;;;;;;;5060325;28;20047;-80
2022/01/10 10:12:50;;;;;;;10.38;8.27;;;;;;;;;;5047731;28;20076;-80
2022/01/10 10:15:22;;;;;;;12.65;8.65;;;;;;;;;;5050969;28;20123;-79
2022/01/10 10:17:50;;;;;;;13.13;9.15;;;;;;;;;;5067584;28;20169;-80
2022/01/10 10:20:21;;;;;;;14.27;9.43;;;;;;;;;;5038518;28;20075;-82
2022/01/10 10:23:13;;;;;;;13.48;8.73;;;;;;;;;;5051107;28;20040;-82
2022/01/10 10:25:53;;;;;;;10.55;7.13;;;;;;;;;;5067010;28;20044;-80
2022/01/10 10:28:21;;;;;;;9.95;7.28;;;;;;;;;;5073381;28;20103;-81
2022/01/10 10:30:49;;;;;;;10.38;8.05;;;;;;;;;;5029760;28;20045;-81
2022/01/10 10:33:19;;;;;;;10.20;7.47;;;;;;;;;;5061677;28;20068;-81
2022/01/10 10:35:56;;;;;;;19.73;8.50;;;;;;;;;;5047384;28;20036;-80
2022/01/10 10:38:25;;;;;;;10.25;7.47;;;;;;;;;;5064561;28;20049;-81
2022/01/10 10:40:52;;;;;;;12.70;7.80;;;;;;;;;;5044800;28;20048;-81
2022/01/10 10:43:19;;;;;;;13.57;9.20;;;;;;;;;;5048864;28;20196;-77
2022/01/10 10:45:48;;;;;;;11.73;9.38;;;;;;;;;;5081613;28;20131;-82
2022/01/10 10:48:17;;;;;;;14.45;7.95;;;;;;;;;;5064017;28;20048;-86
2022/01/10 10:50:45;;;;;;;11.35;9.32;;;;;;;;;;5079468;28;20131;-85
2022/01/10 10:53:14;;;;;;;11.52;7.97;;;;;;;;;;5065660;28;20049;-78
2022/01/10 10:55:45;;;;;;;11.55;7.40;;;;;;;;;;5044866;28;20542;-77
2022/01/10 10:58:13;;;;;;;15.25;8.85;;;;;;;;;;5047125;28;20045;-75
2022/01/10 11:00:40;;;;;;;10.45;8.48;;;;;;;;;;5058741;28;20051;-74
2022/01/10 11:03:09;;;;;;;11.75;6.57;;;;;;;;;;5049864;28;20505;-76
2022/01/10 11:05:37;;;;;;;12.00;8.02;;;;;;;;;;5058268;28;20497;-77
2022/01/10 11:08:04;;;;;;;11.13;7.53;;;;;;;;;;5022188;28;20536;-74
2022/01/10 11:10:31;;;;;;;12.68;7.80;;;;;;;;;;5041976;28;20065;-75
2022/01/10 11:13:00;;;;;;;9.15;7.53;;;;;;;;;;5055808;28;20067;-76
2022/01/10 11:15:28;;;;;;;10.43;6.63;;;;;;;;;;5077275;28;20051;-76
2022/01/10 11:18:03;;;;;;;9.77;6.55;;;;;;;;;;5092337;28;20439;-75
2022/01/10 11:20:40;;;;;;;9.27;6.93;;;;;;;;;;5059870;28;20044;-78
2022/01/10 11:23:27;;;;;;;12.70;7.47;;;;;;;;;;5057915;28;20051;-79
2022/01/10 11:25:57;;;;;;;9.55;7.63;;;;;;;;;;5058304;28;20045;-78
2022/01/10 11:28:26;;;;;;;15.93;7.93;;;;;;;;;;5061184;28;20048;-79
2022/01/10 11:31:02;;;;;;;12.27;8.18;;;;;;;;;;5093531;28;20071;-79
2022/01/10 11:33:36;;;;;;;11.88;8.02;;;;;;;;;;5077668;28;20052;-79
2022/01/10 11:36:10;;;;;;;16.57;9.07;;;;;;;;;;5062512;28;20052;-78
2022/01/10 11:38:48;;;;;;;12.82;8.32;;;;;;;;;;5059749;28;20052;-79
2022/01/10 11:41:29;;;;;;;17.05;9.20;;;;;;;;;;5055358;28;20049;-79
2022/01/10 11:44:08;;;;;;;14.63;7.60;;;;;;;;;;5036302;28;20064;-79
2022/01/10 11:46:38;;;;;;;11.63;7.50;;;;;;;;;;5058560;28;20382;-78
2022/01/10 11:49:08;;;;;;;13.52;8.70;;;;;;;;;;5087167;28;20505;-78
2022/01/10 11:51:49;;;;;;;11.77;7.93;;;;;;;;;;5055347;28;20114;-79
2022/01/10 11:54:38;;;;;;;10.68;7.65;;;;;;;;;;5041753;28;20044;-77
2022/01/10 11:57:06;;;;;;;10.65;7.53;;;;;;;;;;5056826;28;20114;-78
2022/01/10 11:59:35;;;;;;;12.18;8.70;;;;;;;;;;5074748;28;20053;-80
2022/01/10 12:02:14;;;;;;;12.63;8.65;;;;;;;;;;5055767;28;20128;-78
2022/01/10 12:04:44;;;;;;;15.07;9.05;;;;;;;;;;5073949;28;20052;-79
2022/01/10 12:07:13;;;;;;;18.42;8.50;;;;;;;;;;5073515;28;20051;-79
2022/01/10 12:09:41;;;;;;;13.50;8.52;;;;;;;;;;5089379;28;20060;-79
2022/01/10 12:12:09;;;;;;;12.75;10.18;;;;;;;;;;5088902;28;20097;-78
2022/01/10 12:14:37;;;;;;;12.38;8.07;;;;;;;;;;5056381;28;20404;-78
2022/01/10 12:17:05;;;;;;;10.35;7.53;;;;;;;;;;5056551;28;20044;-78
2022/01/10 12:19:32;;;;;;;13.32;7.90;;;;;;;;;;5055206;28;20044;-79
2022/01/10 12:22:00;;;;;;;11.07;7.75;;;;;;;;;;5055640;28;20047;-78
2022/01/10 12:24:29;;;;;;;12.15;8.38;;;;;;;;;;5055598;28;20474;-78
2022/01/10 12:26:56;;;;;;;10.95;9.52;;;;;;;;;;5055756;28;20488;-78
2022/01/10 12:29:28;;;;;;;12.02;8.55;;;;;;;;;;5073071;28;20036;-78
2022/01/10 12:31:57;;;;;;;11.10;8.27;;;;;;;;;;5040398;28;20115;-78
2022/01/10 12:34:24;;;;;;;11.27;8.30;;;;;;;;;;5035503;28;20098;-79
2022/01/10 12:36:51;;;;;;;14.05;8.40;;;;;;;;;;5053466;28;20556;-79
2022/01/10 12:39:24;;;;;;;9.20;7.43;;;;;;;;;;5048464;28;20051;-78
2022/01/10 12:41:52;;;;;;;14.68;8.00;;;;;;;;;;5055074;28;20508;-79
2022/01/10 12:44:20;;;;;;;10.82;7.25;;;;;;;;;;5050346;28;20073;-79
2022/01/10 12:46:47;;;;;;;14.45;9.13;;;;;;;;;;5086686;28;20121;-79
2022/01/10 12:49:15;;;;;;;12.48;9.10;;;;;;;;;;5074894;28;20475;-79
2022/01/10 12:51:48;;;;;;;10.60;8.25;;;;;;;;;;5075078;28;20068;-79
2022/01/10 12:54:24;;;;;;;11.77;9.23;;;;;;;;;;5075200;28;20048;-80
2022/01/10 12:56:51;;;;;;;14.57;9.77;;;;;;;;;;5092957;28;20043;-79
2022/01/10 12:59:23;;;;;;;16.77;11.38;;;;;;;;;;5093272;28;20499;-79
2022/01/10 13:01:52;;;;;;;18.77;12.15;;;;;;;;;;5075562;28;20116;-79
2022/01/10 13:04:22;;;;;;;19.10;12.48;;;;;;;;;;5074924;28;20051;-79
2022/01/10 13:06:51;;;;;;;19.60;12.95;;;;;;;;;;5075558;28;20040;-78
2022/01/10 13:09:18;;;;;;;19.23;12.07;;;;;;;;;;5092701;28;20054;-79
2022/01/10 13:11:48;;;;;;;21.42;12.93;;;;;;;;;;5075051;28;20488;-79
2022/01/10 13:14:18;;;;;;;22.63;12.82;;;;;;;;;;5059248;28;20048;-80
2022/01/10 13:16:55;;;;;;;20.17;13.95;;;;;;;;;;5092394;28;20044;-79
2022/01/10 13:19:27;;;;;;;17.38;11.55;;;;;;;;;;5074668;28;20097;-79
2022/01/10 13:22:01;;;;;;;18.40;12.20;;;;;;;;;;5074561;28;20055;-78
2022/01/10 13:24:30;;;;;;;18.85;11.45;;;;;;;;;;5058919;28;20097;-79
2022/01/10 13:27:03;;;;;;;16.52;11.32;;;;;;;;;;5075077;28;20048;-79
2022/01/10 13:29:30;;;;;;;16.13;11.25;;;;;;;;;;5058207;28;20075;-79
2022/01/10 13:31:57;;;;;;;18.73;11.50;;;;;;;;;;5073846;28;20135;-79
2022/01/10 13:34:26;;;;;;;19.88;13.32;;;;;;;;;;5058163;28;20063;-79
2022/01/10 13:36:53;;;;;;;17.50;11.52;;;;;;;;;;5074440;28;20472;-79
2022/01/10 13:39:20;;;;;;;22.25;13.32;;;;;;;;;;5074528;28;20051;-79
2022/01/10 13:42:02;;;;;;;18.70;11.68;;;;;;;;;;5058624;28;20048;-79
2022/01/10 13:44:29;;;;;;;17.17;12.10;;;;;;;;;;5074272;28;20142;-79
2022/01/10 13:47:05;;;;;;;30.13;13.80;;;;;;;;;;5074770;28;20112;-79
2022/01/10 13:49:33;;;;;;;20.05;14.00;;;;;;;;;;5058109;28;20050;-79
2022/01/10 13:52:10;;;;;;;20.63;14.75;;;;;;;;;;5092413;28;20427;-79
2022/01/10 13:54:37;;;;;;;16.90;12.15;;;;;;;;;;5074449;28;20047;-79
2022/01/10 13:57:24;;;;;;;20.63;12.82;;;;;;;;;;5074194;28;20056;-78
2022/01/10 14:00:14;;;;;;;19.17;14.43;;;;;;;;;;5074357;28;20048;-79
2022/01/10 14:02:43;;;;;;;23.40;14.15;;;;;;;;;;5092119;28;20403;-79
2022/01/10 14:05:22;;;;;;;21.35;15.77;;;;;;;;;;5074375;28;20044;-79
2022/01/10 14:07:50;;;;;;;20.48;14.82;;;;;;;;;;5074249;28;20055;-78
2022/01/10 14:10:17;;;;;;;21.58;14.18;;;;;;;;;;5073950;28;20569;-79
2022/01/10 14:12:45;;;;;;;20.15;14.73;;;;;;;;;;5074054;28;20044;-79
2022/01/10 14:15:12;;;;;;;19.80;15.07;;;;;;;;;;5057920;28;20048;-79
2022/01/10 14:17:39;;;;;;;20.63;14.50;;;;;;;;;;5074270;28;20054;-79
2022/01/10 14:20:06;;;;;;;20.05;14.55;;;;;;;;;;5073997;28;20411;-79
2022/01/10 14:22:33;;;;;;;23.88;14.90;;;;;;;;;;5092046;28;20106;-79
2022/01/10 14:25:00;;;;;;;26.00;15.10;;;;;;;;;;5074135;28;20555;-79
2022/01/10 14:27:29;;;;;;;23.08;16.42;;;;;;;;;;5092001;28;20073;-79
2022/01/10 14:29:57;;;;;;;21.35;16.60;;;;;;;;;;5091522;28;20072;-79
2022/01/10 14:32:24;;;;;;;21.58;16.20;;;;;;;;;;5057488;28;20056;-79
2022/01/10 14:34:51;;;;;;;19.45;15.60;;;;;;;;;;5074352;28;20134;-79
2022/01/10 14:37:19;;;;;;;26.60;20.52;;;;;;;;;;5074247;28;20044;-79
2022/01/10 14:39:46;;;;;;;24.80;17.92;;;;;;;;;;5091532;28;20044;-78
2022/01/10 14:42:13;;;;;;;29.67;18.98;;;;;;;;;;5073913;28;20086;-77
2022/01/10 14:44:39;;;;;;;30.60;21.90;;;;;;;;;;5077577;28;20568;-77
2022/01/10 14:47:06;;;;;;;22.30;18.60;;;;;;;;;;5055211;28;20045;-77
2022/01/10 14:49:37;;;;;;;28.40;20.27;;;;;;;;;;5028542;28;20404;-77